^^
Station Historical Data
 
Daily Summary for September 20, 2017 Units:  English    Metric   Both
« Previous Day
Next Day »
Daily Weekly Monthly Yearly Custom
  Current: High: Low: Average:
Temperature: 78.3 °F 89.3 °F 61.3 °F 74.5 °F
Dew Point: 74.8 °F 79.2 °F 60.4 °F 68.7 °F
Humidity: 89% 99% 58% 84%
Wind Speed: 0.0mph 4.6mph 0.0mph 0.3mph
Wind Gust: 0.0mph 9.2mph - -
WindCalm - - East
Pressure: 30.10 in 30.17 in 30.08 in -
Precipitation: 0.03 in      
Historical Graphs
 
 
Tabular Data for September 20, 2017
Time Temperature Dew Point Pressure Wind Wind Speed Wind Gust Humidity Rainfall Rate (Hourly) solar Conditions
00:01 65.2 °F 63.7 °F 30.10 in Calm     95% 0.00 in WeatherDisplay:10.37 W/m2 CLR
00:06 65.1 °F 63.9 °F 30.10 in Calm     96% 0.00 in WeatherDisplay:10.37 W/m2 CLR
00:11 65.0 °F 63.8 °F 30.10 in Calm     96% 0.00 in WeatherDisplay:10.37 W/m2 CLR
00:16 64.9 °F 63.4 °F 30.10 in Calm     95% 0.00 in WeatherDisplay:10.37 W/m2 CLR
00:21 64.8 °F 63.6 °F 30.10 in Calm     96% 0.00 in WeatherDisplay:10.37 W/m2 CLR
00:26 64.7 °F 63.5 °F 30.10 in Calm     96% 0.00 in WeatherDisplay:10.37 W/m2 CLR
00:31 64.6 °F 63.4 °F 30.10 in Calm     96% 0.00 in WeatherDisplay:10.37 W/m2 CLR
00:36 64.6 °F 63.4 °F 30.10 in Calm     96% 0.00 in WeatherDisplay:10.37 W/m2 CLR
00:41 64.5 °F 63.3 °F 30.10 in Calm     96% 0.00 in WeatherDisplay:10.37 W/m2 CLR
00:46 64.5 °F 63.3 °F 30.10 in Calm     96% 0.00 in WeatherDisplay:10.37 W/m2 CLR
00:51 64.5 °F 63.3 °F 30.10 in Calm     96% 0.00 in WeatherDisplay:10.37 W/m2 CLR
00:56 64.4 °F 63.2 °F 30.10 in Calm     96% 0.00 in WeatherDisplay:10.37 W/m2 CLR
01:01 64.5 °F 63.3 °F 30.10 in Calm     96% 0.00 in WeatherDisplay:10.37 W/m2 CLR
01:06 64.5 °F 63.3 °F 30.10 in Calm     96% 0.00 in WeatherDisplay:10.37 W/m2 CLR
01:11 64.4 °F 63.2 °F 30.10 in Calm     96% 0.00 in WeatherDisplay:10.37 W/m2 CLR
01:16 64.3 °F 63.1 °F 30.11 in Calm     96% 0.00 in WeatherDisplay:10.37 W/m2 CLR
01:21 64.2 °F 63.0 °F 30.11 in Calm     96% 0.00 in WeatherDisplay:10.37 W/m2 CLR
01:26 64.1 °F 62.9 °F 30.11 in Calm     96% 0.00 in WeatherDisplay:10.37 W/m2 CLR
01:31 64.1 °F 62.9 °F 30.11 in Calm     96% 0.00 in WeatherDisplay:10.37 W/m2 CLR
01:36 64.1 °F 63.2 °F 30.11 in Calm     97% 0.00 in WeatherDisplay:10.37 W/m2 CLR
01:41 64.1 °F 62.9 °F 30.11 in Calm     96% 0.00 in WeatherDisplay:10.37 W/m2 CLR
01:46 64.0 °F 62.8 °F 30.11 in Calm     96% 0.00 in WeatherDisplay:10.37 W/m2 CLR
01:51 63.9 °F 62.7 °F 30.11 in Calm     96% 0.00 in WeatherDisplay:10.37 W/m2 CLR
01:56 63.8 °F 62.6 °F 30.11 in Calm     96% 0.00 in WeatherDisplay:10.37 W/m2 CLR
02:01 63.8 °F 62.9 °F 30.11 in Calm     97% 0.00 in WeatherDisplay:10.37 W/m2 CLR
02:06 63.7 °F 62.5 °F 30.11 in Calm     96% 0.00 in WeatherDisplay:10.37 W/m2 CLR
02:11 63.7 °F 62.8 °F 30.11 in Calm     97% 0.00 in WeatherDisplay:10.37 W/m2 CLR
02:16 63.8 °F 62.9 °F 30.11 in Calm     97% 0.00 in WeatherDisplay:10.37 W/m2 CLR
02:21 63.7 °F 62.8 °F 30.11 in Calm     97% 0.00 in WeatherDisplay:10.37 W/m2 CLR
02:26 63.6 °F 62.4 °F 30.11 in Calm     96% 0.00 in WeatherDisplay:10.37 W/m2 CLR
02:31 63.5 °F 62.6 °F 30.11 in Calm     97% 0.00 in WeatherDisplay:10.37 W/m2 CLR
02:36 63.5 °F 62.6 °F 30.11 in Calm     97% 0.00 in WeatherDisplay:10.37 W/m2 CLR
02:41 63.4 °F 62.5 °F 30.10 in Calm     97% 0.00 in WeatherDisplay:10.37 W/m2 CLR
02:46 63.3 °F 62.4 °F 30.10 in Calm     97% 0.00 in WeatherDisplay:10.37 W/m2 CLR
02:51 63.2 °F 62.3 °F 30.10 in Calm     97% 0.00 in WeatherDisplay:10.37 W/m2 CLR
02:56 63.2 °F 62.3 °F 30.10 in Calm     97% 0.00 in WeatherDisplay:10.37 W/m2 CLR
02:57 63.2 °F 62.3 °F 30.10 in Calm     97% 0.00 in WeatherDisplay:10.37 W/m2 CLR
03:02 63.1 °F 61.9 °F 30.10 in Calm     96% 0.00 in WeatherDisplay:10.37 W/m2 CLR
03:07 63.0 °F 61.8 °F 30.10 in Calm     96% 0.00 in WeatherDisplay:10.37 W/m2 CLR
03:12 62.9 °F 61.7 °F 30.10 in Calm     96% 0.00 in WeatherDisplay:10.37 W/m2 CLR
03:17 62.8 °F 61.6 °F 30.09 in Calm     96% 0.00 in WeatherDisplay:10.37 W/m2 CLR
03:22 62.7 °F 61.5 °F 30.09 in Calm     96% 0.00 in WeatherDisplay:10.37 W/m2 CLR
03:27 62.7 °F 61.8 °F 30.10 in Calm     97% 0.00 in WeatherDisplay:10.37 W/m2 CLR
03:32 62.6 °F 61.7 °F 30.09 in Calm     97% 0.00 in WeatherDisplay:10.37 W/m2 CLR
03:37 62.5 °F 61.6 °F 30.09 in Calm     97% 0.00 in WeatherDisplay:10.37 W/m2 CLR
03:42 62.5 °F 61.3 °F 30.09 in Calm     96% 0.00 in WeatherDisplay:10.37 W/m2 CLR
03:47 62.4 °F 61.2 °F 30.10 in Calm     96% 0.00 in WeatherDisplay:10.37 W/m2 CLR
03:53 62.4 °F 61.5 °F 30.10 in Calm     97% 0.00 in WeatherDisplay:10.37 W/m2 CLR
03:58 62.3 °F 61.4 °F 30.10 in Calm     97% 0.00 in WeatherDisplay:10.37 W/m2 CLR
04:03 62.2 °F 61.3 °F 30.10 in Calm     97% 0.00 in WeatherDisplay:10.37 W/m2 CLR
04:08 62.2 °F 61.3 °F 30.10 in Calm     97% 0.00 in WeatherDisplay:10.37 W/m2 CLR
04:13 62.2 °F 61.3 °F 30.10 in Calm     97% 0.00 in WeatherDisplay:10.37 W/m2 CLR
04:18 62.2 °F 61.3 °F 30.10 in Calm     97% 0.00 in WeatherDisplay:10.37 W/m2 CLR
04:23 62.1 °F 61.2 °F 30.10 in Calm     97% 0.00 in WeatherDisplay:10.37 W/m2 CLR
04:28 62.1 °F 61.2 °F 30.10 in Calm     97% 0.00 in WeatherDisplay:10.37 W/m2 CLR
04:33 62.0 °F 61.1 °F 30.10 in Calm     97% 0.00 in WeatherDisplay:10.37 W/m2 CLR
04:38 62.0 °F 61.1 °F 30.10 in Calm     97% 0.00 in WeatherDisplay:10.37 W/m2 CLR
04:43 62.0 °F 61.1 °F 30.10 in Calm     97% 0.00 in WeatherDisplay:10.37 W/m2 CLR
04:48 61.9 °F 61.0 °F 30.11 in Calm     97% 0.00 in WeatherDisplay:10.37 W/m2 CLR
04:53 61.9 °F 61.0 °F 30.11 in Calm     97% 0.00 in WeatherDisplay:10.37 W/m2 CLR
04:58 61.8 °F 60.9 °F 30.11 in Calm     97% 0.00 in WeatherDisplay:10.37 W/m2 CLR
05:03 61.7 °F 60.8 °F 30.10 in Calm     97% 0.00 in WeatherDisplay:10.37 W/m2 CLR
05:08 61.7 °F 60.8 °F 30.11 in Calm     97% 0.00 in WeatherDisplay:10.37 W/m2 CLR
05:13 61.7 °F 60.8 °F 30.11 in Calm     97% 0.00 in WeatherDisplay:10.37 W/m2 CLR
05:18 61.8 °F 60.9 °F 30.11 in Calm     97% 0.00 in WeatherDisplay:10.37 W/m2 CLR
05:23 61.8 °F 60.9 °F 30.11 in Calm     97% 0.00 in WeatherDisplay:10.37 W/m2 CLR
05:28 61.8 °F 60.9 °F 30.11 in Calm     97% 0.00 in WeatherDisplay:10.37 W/m2 CLR
05:33 61.8 °F 60.9 °F 30.11 in Calm     97% 0.00 in WeatherDisplay:10.37 W/m2 CLR
05:38 61.7 °F 60.8 °F 30.11 in Calm     97% 0.00 in WeatherDisplay:10.37 W/m2 CLR
05:43 61.6 °F 60.7 °F 30.11 in Calm     97% 0.00 in WeatherDisplay:10.37 W/m2 CLR
05:48 61.6 °F 60.7 °F 30.11 in Calm     97% 0.00 in WeatherDisplay:10.37 W/m2 CLR
05:53 61.6 °F 60.7 °F 30.11 in Calm     97% 0.00 in WeatherDisplay:10.37 W/m2 CLR
05:58 61.6 °F 60.7 °F 30.11 in Calm     97% 0.00 in WeatherDisplay:10.37 W/m2 CLR
06:03 61.5 °F 60.6 °F 30.12 in Calm     97% 0.00 in WeatherDisplay:10.37 W/m2 CLR
06:08 61.4 °F 60.5 °F 30.12 in Calm     97% 0.00 in WeatherDisplay:10.37 W/m2 CLR
06:13 61.4 °F 60.5 °F 30.12 in Calm     97% 0.00 in WeatherDisplay:10.37 W/m2 CLR
06:18 61.4 °F 60.5 °F 30.12 in Calm     97% 0.00 in WeatherDisplay:10.37 W/m2 CLR
06:23 61.5 °F 60.6 °F 30.12 in Calm     97% 0.00 in WeatherDisplay:10.37 W/m2 CLR
06:28 61.5 °F 60.6 °F 30.13 in Calm     97% 0.00 in WeatherDisplay:10.37 W/m2 CLR
06:33 61.4 °F 60.5 °F 30.13 in Calm     97% 0.00 in WeatherDisplay:10.37 W/m2 CLR
06:38 61.3 °F 60.4 °F 30.13 in Calm     97% 0.00 in WeatherDisplay:10.37 W/m2 CLR
06:43 61.3 °F 60.4 °F 30.13 in Calm     97% 0.00 in WeatherDisplay:10.37 W/m2 CLR
06:48 61.3 °F 60.4 °F 30.13 in Calm     97% 0.00 in WeatherDisplay:10.37 W/m2 CLR
06:53 61.3 °F 60.4 °F 30.13 in Calm     97% 0.00 in WeatherDisplay:10.37 W/m2 CLR
06:58 61.4 °F 60.5 °F 30.14 in Calm     97% 0.00 in WeatherDisplay:10.37 W/m2 CLR
07:03 61.4 °F 60.8 °F 30.14 in Calm     98% 0.00 in WeatherDisplay:10.37 W/m2 CLR
07:08 61.5 °F 60.9 °F 30.14 in Calm     98% 0.00 in WeatherDisplay:10.37 W/m2 CLR
07:13 61.6 °F 61.0 °F 30.14 in Calm     98% 0.00 in WeatherDisplay:10.37 W/m2 CLR
07:18 61.7 °F 61.1 °F 30.14 in Calm     98% 0.00 in WeatherDisplay:10.37 W/m2 CLR
07:23 61.9 °F 61.3 °F 30.14 in Calm     98% 0.00 in WeatherDisplay:10.37 W/m2 CLR
07:28 62.1 °F 61.5 °F 30.14 in Calm     98% 0.00 in WeatherDisplay:10.37 W/m2 CLR
07:33 62.4 °F 61.8 °F 30.14 in Calm     98% 0.00 in WeatherDisplay:10.37 W/m2 CLR
07:38 62.6 °F 62.0 °F 30.15 in Calm     98% 0.00 in WeatherDisplay:10.37 W/m2 CLR
07:43 62.8 °F 62.2 °F 30.15 in Calm     98% 0.00 in WeatherDisplay:10.37 W/m2 CLR
07:48 63.0 °F 62.4 °F 30.15 in Calm     98% 0.00 in WeatherDisplay:10.37 W/m2 CLR
07:53 63.2 °F 62.6 °F 30.15 in Calm     98% 0.00 in WeatherDisplay:10.37 W/m2 CLR
07:58 63.4 °F 62.8 °F 30.16 in Calm     98% 0.00 in WeatherDisplay:10.37 W/m2 CLR
08:03 63.5 °F 62.9 °F 30.16 in Calm     98% 0.00 in WeatherDisplay:10.37 W/m2 CLR
08:08 63.6 °F 63.0 °F 30.16 in Calm     98% 0.00 in WeatherDisplay:10.37 W/m2 CLR
08:13 63.9 °F 63.3 °F 30.16 in Calm     98% 0.00 in WeatherDisplay:10.37 W/m2 CLR
08:18 64.5 °F 63.9 °F 30.16 in Calm     98% 0.00 in WeatherDisplay:10.37 W/m2 CLR
08:23 65.0 °F 64.4 °F 30.16 in Calm     98% 0.00 in WeatherDisplay:10.37 W/m2 CLR
08:28 65.6 °F 65.0 °F 30.16 in Calm     98% 0.00 in WeatherDisplay:10.37 W/m2 CLR
08:33 66.3 °F 66.0 °F 30.16 in Calm     99% 0.00 in WeatherDisplay:10.37 W/m2 CLR
08:38 67.3 °F 66.7 °F 30.16 in Calm     98% 0.00 in WeatherDisplay:10.37 W/m2 CLR
08:43 68.4 °F 68.1 °F 30.16 in Calm     99% 0.00 in WeatherDisplay:10.37 W/m2 CLR
08:48 69.0 °F 68.4 °F 30.16 in Calm     98% 0.00 in WeatherDisplay:10.37 W/m2 CLR
08:53 69.5 °F 68.9 °F 30.16 in Calm     98% 0.00 in WeatherDisplay:10.37 W/m2 CLR
08:54 69.7 °F 69.1 °F 30.16 in Calm     98% 0.00 in WeatherDisplay:10.37 W/m2 CLR
08:59 70.4 °F 69.2 °F 30.16 in Calm     96% 0.00 in WeatherDisplay:10.37 W/m2 CLR
09:04 71.1 °F 69.6 °F 30.16 in Calm     95% 0.00 in WeatherDisplay:10.37 W/m2 CLR
09:09 71.6 °F 69.8 °F 30.17 in Calm     94% 0.00 in WeatherDisplay:10.37 W/m2 CLR
09:14 72.2 °F 70.1 °F 30.17 in Calm     93% 0.00 in WeatherDisplay:10.37 W/m2 CLR
09:19 73.0 °F 70.5 °F 30.17 in Calm     92% 0.00 in WeatherDisplay:10.37 W/m2 CLR
09:24 73.9 °F 70.8 °F 30.17 in Calm     90% 0.00 in WeatherDisplay:10.37 W/m2 CLR
09:29 74.8 °F 71.3 °F 30.17 in Calm     89% 0.00 in WeatherDisplay:10.37 W/m2 CLR
09:34 75.3 °F 71.2 °F 30.17 in Calm     87% 0.00 in WeatherDisplay:10.37 W/m2 CLR
09:39 75.8 °F 71.7 °F 30.17 in Calm     87% 0.00 in WeatherDisplay:10.37 W/m2 CLR
09:44 76.1 °F 71.6 °F 30.17 in Calm     86% 0.00 in WeatherDisplay:10.37 W/m2 CLR
09:49 76.4 °F 71.6 °F 30.17 in Calm     85% 0.00 in WeatherDisplay:10.37 W/m2 CLR
09:54 76.9 °F 71.7 °F 30.17 in NNE 0.1 mph 2.3 mph 84% 0.00 in WeatherDisplay:10.37 W/m2 CLR
09:59 77.6 °F 72.4 °F 30.17 in Calm     84% 0.00 in WeatherDisplay:10.37 W/m2 CLR
10:04 78.1 °F 72.5 °F 30.17 in Calm     83% 0.00 in WeatherDisplay:10.37 W/m2 CLR
10:09 78.8 °F 72.8 °F 30.17 in Calm     82% 0.00 in WeatherDisplay:10.37 W/m2 CLR
10:14 79.3 °F 73.7 °F 30.17 in NNE 0.1 mph   83% 0.00 in WeatherDisplay:10.37 W/m2 CLR
10:19 79.9 °F 72.8 °F 30.17 in NE 0.3 mph 2.3 mph 79% 0.00 in WeatherDisplay:10.37 W/m2 CLR
10:24 80.5 °F 73.4 °F 30.17 in NE 0.3 mph 1.1 mph 79% 0.00 in WeatherDisplay:10.37 W/m2 CLR
10:29 81.1 °F 72.4 °F 30.17 in NE 1.7 mph 4.6 mph 75% 0.00 in WeatherDisplay:10.37 W/m2 CLR
10:34 81.4 °F 72.3 °F 30.17 in ESE 1.7 mph 6.9 mph 74% 0.00 in WeatherDisplay:10.37 W/m2 CLR
10:39 81.9 °F 72.8 °F 30.17 in ESE 0.7 mph 3.5 mph 74% 0.00 in WeatherDisplay:10.37 W/m2 CLR
10:44 82.3 °F 72.8 °F 30.17 in ESE 1.4 mph 5.0 mph 73% 0.00 in WeatherDisplay:10.37 W/m2 CLR
10:49 82.4 °F 72.0 °F 30.17 in ESE 1.4 mph 4.0 mph 71% 0.00 in WeatherDisplay:10.37 W/m2 CLR
10:54 82.7 °F 72.3 °F 30.17 in ESE 3.7 mph 8.1 mph 71% 0.00 in WeatherDisplay:10.37 W/m2 CLR
10:59 83.3 °F 72.5 °F 30.17 in ESE 0.7 mph 3.5 mph 70% 0.00 in WeatherDisplay:10.37 W/m2 CLR
11:04 83.6 °F 72.8 °F 30.17 in ESE 1.2 mph 4.6 mph 70% 0.00 in WeatherDisplay:10.37 W/m2 CLR
11:09 83.9 °F 71.8 °F 30.17 in ESE 0.8 mph 6.9 mph 67% 0.00 in WeatherDisplay:10.37 W/m2 CLR
11:10 83.9 °F 71.8 °F 30.17 in ESE 1.8 mph 4.6 mph 67% 0.00 in WeatherDisplay:10.37 W/m2 CLR
11:15 83.9 °F 71.8 °F 30.17 in ESE 0.6 mph 1.1 mph 67% 0.00 in WeatherDisplay:10.37 W/m2 CLR
11:20 84.1 °F 72.0 °F 30.17 in SE 4.6 mph 9.2 mph 67% 0.00 in WeatherDisplay:10.37 W/m2 CLR
11:25 84.0 °F 72.3 °F 30.17 in SE 1.3 mph 3.5 mph 68% 0.00 in WeatherDisplay:10.37 W/m2 CLR
11:30 83.8 °F 71.7 °F 30.17 in SE 0.1 mph 1.1 mph 67% 0.00 in WeatherDisplay:10.37 W/m2 CLR
11:35 84.1 °F 72.4 °F 30.17 in SE 0.1 mph 1.1 mph 68% 0.00 in WeatherDisplay:10.37 W/m2 CLR
11:40 84.5 °F 73.2 °F 30.17 in SE 0.1 mph 3.5 mph 69% 0.00 in WeatherDisplay:10.37 W/m2 CLR
11:45 84.8 °F 72.6 °F 30.17 in SE 0.1 mph 1.1 mph 67% 0.00 in WeatherDisplay:10.37 W/m2 CLR
11:50 85.1 °F 72.5 °F 30.16 in East 3.1 mph 4.6 mph 66% 0.00 in WeatherDisplay:10.37 W/m2 CLR
11:55 85.4 °F 73.2 °F 30.16 in East 1.0 mph 3.5 mph 67% 0.00 in WeatherDisplay:10.37 W/m2 CLR
12:00 85.8 °F 72.2 °F 30.16 in ENE 2.4 mph 4.6 mph 64% 0.00 in WeatherDisplay:10.37 W/m2 CLR
12:05 86.2 °F 72.6 °F 30.16 in East 0.3 mph 2.3 mph 64% 0.00 in WeatherDisplay:10.37 W/m2 CLR
12:10 86.1 °F 72.0 °F 30.16 in ESE 0.2 mph 2.3 mph 63% 0.00 in WeatherDisplay:10.37 W/m2 CLR
12:15 86.1 °F 73.0 °F 30.16 in Calm     65% 0.00 in WeatherDisplay:10.37 W/m2 CLR
12:20 86.6 °F 72.5 °F 30.16 in ESE 1.7 mph 3.0 mph 63% 0.00 in WeatherDisplay:10.37 W/m2 CLR
12:25 86.8 °F 72.7 °F 30.16 in ESE 1.5 mph 3.5 mph 63% 0.00 in WeatherDisplay:10.37 W/m2 CLR
12:30 86.6 °F 72.5 °F 30.16 in East 2.7 mph 5.0 mph 63% 0.00 in WeatherDisplay:10.37 W/m2 CLR
12:35 86.2 °F 73.0 °F 30.15 in ESE 0.7 mph 1.1 mph 65% 0.00 in WeatherDisplay:10.37 W/m2 CLR
12:40 86.0 °F 72.9 °F 30.15 in East 0.2 mph 3.5 mph 65% 0.00 in WeatherDisplay:10.37 W/m2 CLR
12:45 86.5 °F 72.4 °F 30.15 in East 0.1 mph 1.1 mph 63% 0.00 in WeatherDisplay:10.37 W/m2 CLR
12:50 87.0 °F 72.9 °F 30.15 in NE 3.6 mph 5.8 mph 63% 0.00 in WeatherDisplay:10.37 W/m2 CLR
12:55 86.5 °F 71.5 °F 30.15 in East 0.8 mph 4.6 mph 61% 0.00 in WeatherDisplay:10.37 W/m2 CLR
13:00 86.6 °F 72.5 °F 30.15 in East 0.5 mph 4.6 mph 63% 0.00 in WeatherDisplay:10.37 W/m2 CLR
13:05 87.0 °F 73.3 °F 30.15 in ESE 0.1 mph   64% 0.00 in WeatherDisplay:10.37 W/m2 CLR
13:10 87.3 °F 72.7 °F 30.15 in ENE 2.2 mph 6.9 mph 62% 0.00 in WeatherDisplay:10.37 W/m2 CLR
13:13 87.3 °F 72.2 °F 30.14 in ENE 0.1 mph   61% 0.00 in WeatherDisplay:10.37 W/m2 CLR
13:18 87.7 °F 74.0 °F 30.14 in East 0.8 mph 5.0 mph 64% 0.00 in WeatherDisplay:10.37 W/m2 CLR
13:23 88.3 °F 73.1 °F 30.14 in NE 1.4 mph 3.5 mph 61% 0.00 in WeatherDisplay:10.37 W/m2 CLR
13:28 88.2 °F 73.0 °F 30.14 in ENE 0.4 mph 3.0 mph 61% 0.00 in WeatherDisplay:10.37 W/m2 CLR
13:33 88.3 °F 73.1 °F 30.14 in ENE 2.1 mph 3.5 mph 61% 0.00 in WeatherDisplay:10.37 W/m2 CLR
13:38 88.3 °F 72.2 °F 30.13 in NE 1.1 mph 4.6 mph 59% 0.00 in WeatherDisplay:10.37 W/m2 CLR
13:43 88.0 °F 73.3 °F 30.13 in Calm     62% 0.00 in WeatherDisplay:10.37 W/m2 CLR
13:48 87.8 °F 72.7 °F 30.13 in Calm     61% 0.00 in WeatherDisplay:10.37 W/m2 CLR
13:53 87.7 °F 73.1 °F 30.13 in Calm   3.5 mph 62% 0.00 in WeatherDisplay:10.37 W/m2 CLR
13:58 87.9 °F 73.3 °F 30.12 in ENE 1.9 mph 3.5 mph 62% 0.00 in WeatherDisplay:10.37 W/m2 CLR
14:03 87.7 °F 74.0 °F 30.13 in ENE 0.1 mph 1.1 mph 64% 0.00 in WeatherDisplay:10.37 W/m2 CLR
14:08 87.3 °F 73.6 °F 30.12 in ENE 0.1 mph 1.1 mph 64% 0.00 in WeatherDisplay:10.37 W/m2 CLR
14:13 86.5 °F 72.9 °F 30.12 in Calm     64% 0.00 in WeatherDisplay:10.37 W/m2 CLR
14:18 86.8 °F 73.6 °F 30.12 in ENE 0.5 mph 1.0 mph 65% 0.00 in WeatherDisplay:10.37 W/m2 CLR
14:23 87.7 °F 73.1 °F 30.12 in ENE 2.1 mph 4.6 mph 62% 0.00 in WeatherDisplay:10.37 W/m2 CLR
14:28 88.4 °F 73.2 °F 30.11 in Calm     61% 0.00 in WeatherDisplay:10.37 W/m2 CLR
14:33 88.4 °F 72.7 °F 30.11 in ENE 0.2 mph 3.5 mph 60% 0.00 in WeatherDisplay:10.37 W/m2 CLR
14:34 88.3 °F 72.2 °F 30.11 in ENE 0.5 mph 2.3 mph 59% 0.00 in WeatherDisplay:10.37 W/m2 CLR
14:39 87.5 °F 73.8 °F 30.11 in Calm   2.0 mph 64% 0.00 in WeatherDisplay:10.37 W/m2 CLR
14:44 87.5 °F 71.9 °F 30.11 in ENE 0.6 mph 2.3 mph 60% 0.00 in WeatherDisplay:10.37 W/m2 CLR
14:49 87.9 °F 72.8 °F 30.11 in Calm     61% 0.00 in WeatherDisplay:10.37 W/m2 CLR
14:54 88.3 °F 73.1 °F 30.11 in Calm   1.0 mph 61% 0.00 in WeatherDisplay:10.37 W/m2 CLR
14:59 88.5 °F 72.8 °F 30.10 in Calm     60% 0.00 in WeatherDisplay:10.37 W/m2 CLR
15:04 89.3 °F 74.1 °F 30.10 in NE 2.7 mph 4.0 mph 61% 0.00 in WeatherDisplay:10.37 W/m2 CLR
15:09 89.3 °F 72.6 °F 30.10 in NE 1.8 mph 4.6 mph 58% 0.00 in WeatherDisplay:10.37 W/m2 CLR
15:14 88.6 °F 72.9 °F 30.10 in NE 1.2 mph 3.5 mph 60% 0.00 in WeatherDisplay:10.37 W/m2 CLR
15:19 87.9 °F 73.7 °F 30.10 in Calm     63% 0.00 in WeatherDisplay:10.37 W/m2 CLR
15:24 87.4 °F 73.7 °F 30.10 in Calm     64% 0.00 in WeatherDisplay:10.37 W/m2 CLR
15:29 87.1 °F 73.9 °F 30.10 in Calm     65% 0.00 in WeatherDisplay:10.37 W/m2 CLR
15:34 86.7 °F 73.5 °F 30.10 in Calm     65% 0.00 in WeatherDisplay:10.37 W/m2 CLR
15:39 86.6 °F 73.9 °F 30.10 in NE 0.1 mph 1.1 mph 66% 0.00 in WeatherDisplay:10.37 W/m2 CLR
15:44 86.6 °F 75.2 °F 30.10 in NE 0.2 mph 2.3 mph 69% 0.00 in WeatherDisplay:10.37 W/m2 CLR
15:49 86.3 °F 75.4 °F 30.10 in Calm     70% 0.00 in WeatherDisplay:10.37 W/m2 CLR
15:54 86.1 °F 75.2 °F 30.09 in Calm     70% 0.00 in WeatherDisplay:10.37 W/m2 CLR
15:59 86.3 °F 77.8 °F 30.09 in Calm     76% 0.00 in WeatherDisplay:10.37 W/m2 CLR
16:04 86.4 °F 77.5 °F 30.09 in Calm     75% 0.01 in WeatherDisplay:10.37 W/m2 RA
16:09 85.9 °F 78.2 °F 30.09 in Calm     78% 0.02 in WeatherDisplay:10.37 W/m2 RA
16:14 85.1 °F 78.6 °F 30.09 in Calm     81% 0.02 in WeatherDisplay:10.37 W/m2 RA
16:19 83.9 °F 77.8 °F 30.09 in Calm     82% 0.03 in WeatherDisplay:10.37 W/m2 RA
16:24 83.5 °F 79.2 °F 30.09 in Calm     87% 0.03 in WeatherDisplay:10.37 W/m2 RA
16:29 83.3 °F 79.0 °F 30.09 in Calm     87% 0.03 in WeatherDisplay:10.37 W/m2
16:34 83.7 °F 76.9 °F 30.08 in Calm     80% 0.03 in WeatherDisplay:10.37 W/m2 CLR
16:39 84.8 °F 76.4 °F 30.08 in NE 0.1 mph 1.1 mph 76% 0.03 in WeatherDisplay:10.37 W/m2 CLR
16:44 85.6 °F 79.1 °F 30.08 in Calm     81% 0.03 in WeatherDisplay:10.37 W/m2 CLR
16:49 86.0 °F 78.3 °F 30.08 in Calm     78% 0.03 in WeatherDisplay:10.37 W/m2 CLR
16:54 86.1 °F 78.8 °F 30.08 in Calm     79% 0.03 in WeatherDisplay:10.37 W/m2 CLR
16:59 86.4 °F 77.9 °F 30.08 in Calm     76% 0.03 in WeatherDisplay:10.37 W/m2 CLR
17:04 86.8 °F 77.9 °F 30.08 in Calm     75% 0.02 in WeatherDisplay:10.37 W/m2 CLR
17:09 87.0 °F 76.0 °F 30.08 in NE 0.1 mph   70% 0.01 in WeatherDisplay:10.37 W/m2 CLR
17:14 87.4 °F 75.1 °F 30.08 in Calm     67% 0.01 in WeatherDisplay:10.37 W/m2 CLR
17:19 87.4 °F 74.2 °F 30.08 in Calm     65% 0.00 in WeatherDisplay:10.37 W/m2 CLR
17:24 87.4 °F 76.0 °F 30.08 in Calm     69% 0.00 in WeatherDisplay:10.37 W/m2 CLR
17:29 87.4 °F 76.8 °F 30.08 in Calm     71% 0.00 in WeatherDisplay:10.37 W/m2 CLR
17:34 86.8 °F 76.7 °F 30.08 in Calm     72% 0.00 in WeatherDisplay:10.37 W/m2 CLR
17:39 86.4 °F 76.7 °F 30.09 in Calm     73% 0.00 in WeatherDisplay:10.37 W/m2 CLR
17:44 86.1 °F 78.0 °F 30.09 in Calm     77% 0.00 in WeatherDisplay:10.37 W/m2 CLR
17:49 85.5 °F 77.9 °F 30.08 in Calm     78% 0.00 in WeatherDisplay:10.37 W/m2 CLR
17:54 85.1 °F 77.5 °F 30.08 in Calm     78% 0.00 in WeatherDisplay:10.37 W/m2 CLR
17:59 84.7 °F 77.5 °F 30.08 in Calm     79% 0.00 in WeatherDisplay:10.37 W/m2 CLR
18:04 84.5 °F 77.6 °F 30.08 in Calm     80% 0.00 in WeatherDisplay:10.37 W/m2 CLR
18:09 84.5 °F 77.3 °F 30.08 in Calm     79% 0.00 in WeatherDisplay:10.37 W/m2 CLR
18:14 84.3 °F 77.8 °F 30.08 in Calm     81% 0.00 in WeatherDisplay:10.37 W/m2 CLR
18:19 84.2 °F 77.7 °F 30.08 in Calm     81% 0.00 in WeatherDisplay:10.37 W/m2 CLR
18:24 84.0 °F 77.2 °F 30.08 in Calm     80% 0.00 in WeatherDisplay:10.37 W/m2 CLR
18:29 83.8 °F 77.3 °F 30.09 in Calm     81% 0.00 in WeatherDisplay:10.37 W/m2 CLR
18:34 83.5 °F 77.1 °F 30.08 in Calm     81% 0.00 in WeatherDisplay:10.37 W/m2 CLR
18:39 83.1 °F 76.7 °F 30.08 in Calm     81% 0.00 in WeatherDisplay:10.37 W/m2 CLR
18:44 82.5 °F 76.4 °F 30.09 in Calm     82% 0.00 in WeatherDisplay:10.37 W/m2 CLR
18:49 82.0 °F 76.7 °F 30.09 in Calm     84% 0.00 in WeatherDisplay:10.37 W/m2 CLR
18:54 81.4 °F 76.5 °F 30.09 in Calm     85% 0.00 in WeatherDisplay:10.37 W/m2 CLR
18:59 80.9 °F 76.0 °F 30.09 in Calm     85% 0.00 in WeatherDisplay:10.37 W/m2 CLR
19:04 80.4 °F 75.8 °F 30.09 in Calm     86% 0.00 in WeatherDisplay:10.37 W/m2 CLR
19:09 79.9 °F 75.3 °F 30.09 in Calm     86% 0.00 in WeatherDisplay:10.37 W/m2 CLR
19:14 79.4 °F 75.2 °F 30.09 in Calm     87% 0.00 in WeatherDisplay:10.37 W/m2 CLR
19:19 79.0 °F 75.1 °F 30.09 in Calm     88% 0.00 in WeatherDisplay:10.37 W/m2 CLR
19:24 78.7 °F 74.8 °F 30.10 in Calm     88% 0.00 in WeatherDisplay:10.37 W/m2 CLR
19:29 78.3 °F 74.8 °F 30.10 in Calm     89% 0.00 in WeatherDisplay:10.37 W/m2 CLR
Gayle H. Riggsbee Observatory (GHRO)
Compliments of Weather Underground - 1.5 mb